Search METAR Data

METAR Data for UACC:

UACC 241230Z 07009MPS CAVOK 10/M02 Q1019 NOSIG RMK QFE733/0977